Terminal Aerodrome Forecast
Issued by NWS

Home | Current Version | Previous Version | Text Only | Print | Product List | Glossary On
Versions: 1 2 3 4 5 6 7 8 9 10 11 12 13 14 15
000
FTUS46 KMTR 031720
TAFOAK
TAF
KOAK 031720Z 0318/0424 28007KT P6SM FEW010 FEW200
     FM032100 30013KT P6SM FEW200
     FM040400 30006KT P6SM BKN010
     FM040700 31005KT P6SM OVC008
     FM041700 29006KT P6SM SCT010
     FM042100 30012KT P6SM FEW012=

USA.gov is the U.S. government's official web portal to all federal, state and local government web resources and services.